sensor_id;sensor_type;location;lat;lon;timestamp;temperature;humidity
42147;DHT22;27815;43.410;11.852;2024-01-10T00:01:44;5.60;63.10
42147;DHT22;27815;43.410;11.852;2024-01-10T00:05:46;5.60;63.00
42147;DHT22;27815;43.410;11.852;2024-01-10T00:09:50;5.60;62.90
42147;DHT22;27815;43.410;11.852;2024-01-10T00:13:52;5.60;62.90
42147;DHT22;27815;43.410;11.852;2024-01-10T00:17:55;5.60;62.90
42147;DHT22;27815;43.410;11.852;2024-01-10T00:21:59;5.60;62.80
42147;DHT22;27815;43.410;11.852;2024-01-10T00:26:01;5.60;62.70
42147;DHT22;27815;43.410;11.852;2024-01-10T00:30:05;5.70;62.70
42147;DHT22;27815;43.410;11.852;2024-01-10T00:34:08;5.60;62.70
42147;DHT22;27815;43.410;11.852;2024-01-10T00:38:11;5.70;62.70
42147;DHT22;27815;43.410;11.852;2024-01-10T00:42:14;5.80;62.70
42147;DHT22;27815;43.410;11.852;2024-01-10T00:46:17;5.80;62.70
42147;DHT22;27815;43.410;11.852;2024-01-10T00:50:20;5.80;62.70
42147;DHT22;27815;43.410;11.852;2024-01-10T00:54:23;5.80;62.60
42147;DHT22;27815;43.410;11.852;2024-01-10T00:58:26;5.80;62.60
42147;DHT22;27815;43.410;11.852;2024-01-10T01:02:31;5.80;62.60
42147;DHT22;27815;43.410;11.852;2024-01-10T01:06:34;5.80;62.60
42147;DHT22;27815;43.410;11.852;2024-01-10T01:10:37;5.80;62.60
42147;DHT22;27815;43.410;11.852;2024-01-10T01:14:41;5.80;62.60
42147;DHT22;27815;43.410;11.852;2024-01-10T01:18:47;5.90;62.60
42147;DHT22;27815;43.410;11.852;2024-01-10T01:22:50;5.90;62.60
42147;DHT22;27815;43.410;11.852;2024-01-10T01:26:53;5.80;62.60
42147;DHT22;27815;43.410;11.852;2024-01-10T01:30:57;5.90;62.60
42147;DHT22;27815;43.410;11.852;2024-01-10T01:35:00;6.00;62.60
42147;DHT22;27815;43.410;11.852;2024-01-10T01:39:03;6.00;62.50
42147;DHT22;27815;43.410;11.852;2024-01-10T01:43:22;6.00;62.50
42147;DHT22;27815;43.410;11.852;2024-01-10T01:47:26;6.10;62.40
42147;DHT22;27815;43.410;11.852;2024-01-10T01:51:31;6.10;62.50
42147;DHT22;27815;43.410;11.852;2024-01-10T01:55:35;6.20;62.40
42147;DHT22;27815;43.410;11.852;2024-01-10T01:59:38;6.10;62.30
42147;DHT22;27815;43.410;11.852;2024-01-10T02:03:41;6.20;62.30
42147;DHT22;27815;43.410;11.852;2024-01-10T02:07:45;6.20;62.20
42147;DHT22;27815;43.410;11.852;2024-01-10T02:11:48;6.20;62.20
42147;DHT22;27815;43.410;11.852;2024-01-10T02:15:52;6.20;62.20
42147;DHT22;27815;43.410;11.852;2024-01-10T02:20:10;6.30;62.20
42147;DHT22;27815;43.410;11.852;2024-01-10T02:24:13;6.30;62.10
42147;DHT22;27815;43.410;11.852;2024-01-10T02:28:16;6.30;62.10
42147;DHT22;27815;43.410;11.852;2024-01-10T02:32:19;6.30;62.00
42147;DHT22;27815;43.410;11.852;2024-01-10T02:36:22;6.30;61.90
42147;DHT22;27815;43.410;11.852;2024-01-10T02:40:27;6.20;61.90
42147;DHT22;27815;43.410;11.852;2024-01-10T02:44:29;6.30;61.90
42147;DHT22;27815;43.410;11.852;2024-01-10T02:48:32;6.30;62.00
42147;DHT22;27815;43.410;11.852;2024-01-10T02:52:36;6.30;62.00
42147;DHT22;27815;43.410;11.852;2024-01-10T02:56:38;6.30;62.00
42147;DHT22;27815;43.410;11.852;2024-01-10T03:00:41;6.30;62.00
42147;DHT22;27815;43.410;11.852;2024-01-10T03:04:44;6.30;62.00
42147;DHT22;27815;43.410;11.852;2024-01-10T03:08:47;6.30;62.00
42147;DHT22;27815;43.410;11.852;2024-01-10T03:12:50;6.30;62.00
42147;DHT22;27815;43.410;11.852;2024-01-10T03:16:53;6.20;62.00
42147;DHT22;27815;43.410;11.852;2024-01-10T03:20:56;6.30;62.00
42147;DHT22;27815;43.410;11.852;2024-01-10T03:24:59;6.30;62.00
42147;DHT22;27815;43.410;11.852;2024-01-10T03:29:03;6.30;62.00
42147;DHT22;27815;43.410;11.852;2024-01-10T03:33:06;6.30;61.90
42147;DHT22;27815;43.410;11.852;2024-01-10T03:37:09;6.30;61.80
42147;DHT22;27815;43.410;11.852;2024-01-10T03:41:17;6.20;61.90
42147;DHT22;27815;43.410;11.852;2024-01-10T03:45:20;6.30;62.00
42147;DHT22;27815;43.410;11.852;2024-01-10T03:49:25;6.20;62.00
42147;DHT22;27815;43.410;11.852;2024-01-10T03:53:28;6.30;62.10
42147;DHT22;27815;43.410;11.852;2024-01-10T03:57:32;6.20;62.10
42147;DHT22;27815;43.410;11.852;2024-01-10T04:01:34;6.20;62.10
42147;DHT22;27815;43.410;11.852;2024-01-10T04:05:37;6.20;62.00
42147;DHT22;27815;43.410;11.852;2024-01-10T04:09:40;6.30;62.10
42147;DHT22;27815;43.410;11.852;2024-01-10T04:13:44;6.30;62.20
42147;DHT22;27815;43.410;11.852;2024-01-10T04:17:47;6.30;62.30
42147;DHT22;27815;43.410;11.852;2024-01-10T04:21:50;6.30;62.30
42147;DHT22;27815;43.410;11.852;2024-01-10T04:25:53;6.40;62.40
42147;DHT22;27815;43.410;11.852;2024-01-10T04:29:56;6.40;62.40
42147;DHT22;27815;43.410;11.852;2024-01-10T04:33:59;6.40;62.60
42147;DHT22;27815;43.410;11.852;2024-01-10T04:38:02;6.40;62.70
42147;DHT22;27815;43.410;11.852;2024-01-10T04:42:05;6.30;62.70
42147;DHT22;27815;43.410;11.852;2024-01-10T04:46:08;6.30;62.80
42147;DHT22;27815;43.410;11.852;2024-01-10T04:50:13;6.30;62.70
42147;DHT22;27815;43.410;11.852;2024-01-10T04:54:16;6.30;62.90
42147;DHT22;27815;43.410;11.852;2024-01-10T04:58:19;6.30;63.00
42147;DHT22;27815;43.410;11.852;2024-01-10T05:02:22;6.30;63.10
42147;DHT22;27815;43.410;11.852;2024-01-10T05:06:25;6.30;63.00
42147;DHT22;27815;43.410;11.852;2024-01-10T05:10:28;6.30;63.00
42147;DHT22;27815;43.410;11.852;2024-01-10T05:14:31;6.40;63.10
42147;DHT22;27815;43.410;11.852;2024-01-10T05:18:34;6.30;63.10
42147;DHT22;27815;43.410;11.852;2024-01-10T05:22:37;6.30;63.20
42147;DHT22;27815;43.410;11.852;2024-01-10T05:26:40;6.30;63.20
42147;DHT22;27815;43.410;11.852;2024-01-10T05:30:43;6.30;63.30
42147;DHT22;27815;43.410;11.852;2024-01-10T05:34:46;6.30;63.40
42147;DHT22;27815;43.410;11.852;2024-01-10T05:38:50;6.20;63.70
42147;DHT22;27815;43.410;11.852;2024-01-10T05:42:54;6.20;63.70
42147;DHT22;27815;43.410;11.852;2024-01-10T05:47:00;6.20;63.80
42147;DHT22;27815;43.410;11.852;2024-01-10T05:51:05;6.20;63.80
42147;DHT22;27815;43.410;11.852;2024-01-10T05:55:08;6.30;63.90
42147;DHT22;27815;43.410;11.852;2024-01-10T05:59:12;6.30;63.80
42147;DHT22;27815;43.410;11.852;2024-01-10T06:03:15;6.30;63.90
42147;DHT22;27815;43.410;11.852;2024-01-10T06:07:18;6.30;63.90
42147;DHT22;27815;43.410;11.852;2024-01-10T06:11:22;6.30;63.90
42147;DHT22;27815;43.410;11.852;2024-01-10T06:15:25;6.30;63.90
42147;DHT22;27815;43.410;11.852;2024-01-10T06:19:28;6.30;64.00
42147;DHT22;27815;43.410;11.852;2024-01-10T06:23:31;6.30;63.90
42147;DHT22;27815;43.410;11.852;2024-01-10T06:27:34;6.30;64.10
42147;DHT22;27815;43.410;11.852;2024-01-10T06:31:37;6.30;64.20
42147;DHT22;27815;43.410;11.852;2024-01-10T06:35:40;6.30;64.20
42147;DHT22;27815;43.410;11.852;2024-01-10T06:39:45;6.30;64.30
42147;DHT22;27815;43.410;11.852;2024-01-10T06:43:48;6.20;64.40
42147;DHT22;27815;43.410;11.852;2024-01-10T06:47:51;6.20;64.60
42147;DHT22;27815;43.410;11.852;2024-01-10T06:51:54;6.30;64.90
42147;DHT22;27815;43.410;11.852;2024-01-10T06:55:57;6.30;64.90
42147;DHT22;27815;43.410;11.852;2024-01-10T07:00:00;6.40;65.10
42147;DHT22;27815;43.410;11.852;2024-01-10T07:04:04;6.50;65.00
42147;DHT22;27815;43.410;11.852;2024-01-10T07:08:07;6.50;65.20
42147;DHT22;27815;43.410;11.852;2024-01-10T07:12:11;6.60;65.40
42147;DHT22;27815;43.410;11.852;2024-01-10T07:16:14;6.60;65.40
42147;DHT22;27815;43.410;11.852;2024-01-10T07:20:17;6.60;65.40
42147;DHT22;27815;43.410;11.852;2024-01-10T07:24:20;6.50;65.50
42147;DHT22;27815;43.410;11.852;2024-01-10T07:28:23;6.60;65.40
42147;DHT22;27815;43.410;11.852;2024-01-10T07:32:26;6.50;65.50
42147;DHT22;27815;43.410;11.852;2024-01-10T07:36:29;6.60;65.40
42147;DHT22;27815;43.410;11.852;2024-01-10T07:40:36;6.60;65.40
42147;DHT22;27815;43.410;11.852;2024-01-10T07:44:39;6.50;65.40
42147;DHT22;27815;43.410;11.852;2024-01-10T07:48:42;6.50;65.50
42147;DHT22;27815;43.410;11.852;2024-01-10T07:52:45;6.50;65.60
42147;DHT22;27815;43.410;11.852;2024-01-10T07:56:48;6.50;65.60
42147;DHT22;27815;43.410;11.852;2024-01-10T08:00:51;6.60;65.70
42147;DHT22;27815;43.410;11.852;2024-01-10T08:04:54;6.60;65.60
42147;DHT22;27815;43.410;11.852;2024-01-10T08:08:57;6.70;65.60
42147;DHT22;27815;43.410;11.852;2024-01-10T08:13:00;6.80;65.60
42147;DHT22;27815;43.410;11.852;2024-01-10T08:17:03;6.80;65.60
42147;DHT22;27815;43.410;11.852;2024-01-10T08:21:07;6.80;65.50
42147;DHT22;27815;43.410;11.852;2024-01-10T08:25:10;6.90;65.60
42147;DHT22;27815;43.410;11.852;2024-01-10T08:29:13;6.90;65.70
42147;DHT22;27815;43.410;11.852;2024-01-10T08:33:17;7.00;65.70
42147;DHT22;27815;43.410;11.852;2024-01-10T08:37:20;7.00;65.70
42147;DHT22;27815;43.410;11.852;2024-01-10T08:41:24;7.00;65.70
42147;DHT22;27815;43.410;11.852;2024-01-10T08:45:27;7.00;65.80
42147;DHT22;27815;43.410;11.852;2024-01-10T08:49:30;7.00;65.80
42147;DHT22;27815;43.410;11.852;2024-01-10T08:53:33;7.10;65.90
42147;DHT22;27815;43.410;11.852;2024-01-10T08:57:36;7.10;65.80
42147;DHT22;27815;43.410;11.852;2024-01-10T09:01:39;7.30;65.80
42147;DHT22;27815;43.410;11.852;2024-01-10T09:05:42;7.30;65.70
42147;DHT22;27815;43.410;11.852;2024-01-10T09:09:58;7.40;65.50
42147;DHT22;27815;43.410;11.852;2024-01-10T09:14:01;7.50;65.30
42147;DHT22;27815;43.410;11.852;2024-01-10T09:18:04;7.50;65.10
42147;DHT22;27815;43.410;11.852;2024-01-10T09:22:07;7.60;65.10
42147;DHT22;27815;43.410;11.852;2024-01-10T09:26:10;7.60;64.80
42147;DHT22;27815;43.410;11.852;2024-01-10T09:30:13;7.70;64.80
42147;DHT22;27815;43.410;11.852;2024-01-10T09:34:19;7.80;64.70
42147;DHT22;27815;43.410;11.852;2024-01-10T09:38:23;7.80;64.40
42147;DHT22;27815;43.410;11.852;2024-01-10T09:42:26;7.80;64.40
42147;DHT22;27815;43.410;11.852;2024-01-10T09:46:33;7.90;64.30
42147;DHT22;27815;43.410;11.852;2024-01-10T09:50:37;7.90;64.40
42147;DHT22;27815;43.410;11.852;2024-01-10T09:54:41;8.00;64.50
42147;DHT22;27815;43.410;11.852;2024-01-10T09:58:46;8.10;64.50
42147;DHT22;27815;43.410;11.852;2024-01-10T10:02:51;8.10;64.40
42147;DHT22;27815;43.410;11.852;2024-01-10T10:07:00;8.10;64.30
42147;DHT22;27815;43.410;11.852;2024-01-10T10:11:06;8.10;64.40
42147;DHT22;27815;43.410;11.852;2024-01-10T10:15:14;8.20;64.40
42147;DHT22;27815;43.410;11.852;2024-01-10T10:19:24;8.30;64.30
42147;DHT22;27815;43.410;11.852;2024-01-10T10:23:57;8.30;64.30
42147;DHT22;27815;43.410;11.852;2024-01-10T10:28:01;8.40;64.20
42147;DHT22;27815;43.410;11.852;2024-01-10T10:32:05;8.50;63.90
42147;DHT22;27815;43.410;11.852;2024-01-10T10:36:09;8.40;63.60
42147;DHT22;27815;43.410;11.852;2024-01-10T10:40:14;8.40;63.40
42147;DHT22;27815;43.410;11.852;2024-01-10T10:44:19;8.40;63.40
42147;DHT22;27815;43.410;11.852;2024-01-10T10:48:25;8.40;63.30
42147;DHT22;27815;43.410;11.852;2024-01-10T10:52:30;8.40;63.20
42147;DHT22;27815;43.410;11.852;2024-01-10T10:56:34;8.40;63.00
42147;DHT22;27815;43.410;11.852;2024-01-10T11:00:40;8.50;63.20
42147;DHT22;27815;43.410;11.852;2024-01-10T11:04:44;8.50;63.20
42147;DHT22;27815;43.410;11.852;2024-01-10T11:09:07;8.50;63.20
42147;DHT22;27815;43.410;11.852;2024-01-10T11:26:25;8.80;63.10
42147;DHT22;27815;43.410;11.852;2024-01-10T11:30:36;8.80;63.00
42147;DHT22;27815;43.410;11.852;2024-01-10T11:34:59;8.80;62.90
42147;DHT22;27815;43.410;11.852;2024-01-10T11:39:06;8.90;62.90
42147;DHT22;27815;43.410;11.852;2024-01-10T11:43:13;8.90;62.80
42147;DHT22;27815;43.410;11.852;2024-01-10T11:47:16;8.90;62.70
42147;DHT22;27815;43.410;11.852;2024-01-10T11:51:21;9.00;62.70
42147;DHT22;27815;43.410;11.852;2024-01-10T11:55:46;9.10;62.70
42147;DHT22;27815;43.410;11.852;2024-01-10T11:59:51;9.10;62.30
42147;DHT22;27815;43.410;11.852;2024-01-10T12:03:55;9.10;62.20
42147;DHT22;27815;43.410;11.852;2024-01-10T12:08:16;9.10;62.30
42147;DHT22;27815;43.410;11.852;2024-01-10T12:12:22;9.20;62.40
42147;DHT22;27815;43.410;11.852;2024-01-10T12:16:25;9.20;62.20
42147;DHT22;27815;43.410;11.852;2024-01-10T12:20:28;9.20;62.20
42147;DHT22;27815;43.410;11.852;2024-01-10T12:24:31;9.30;62.20
42147;DHT22;27815;43.410;11.852;2024-01-10T12:28:35;9.20;62.10
42147;DHT22;27815;43.410;11.852;2024-01-10T12:32:38;9.30;61.80
42147;DHT22;27815;43.410;11.852;2024-01-10T12:36:41;9.30;61.90
42147;DHT22;27815;43.410;11.852;2024-01-10T12:40:45;9.20;61.90
42147;DHT22;27815;43.410;11.852;2024-01-10T12:44:48;9.30;62.00
42147;DHT22;27815;43.410;11.852;2024-01-10T12:49:05;9.30;61.90
42147;DHT22;27815;43.410;11.852;2024-01-10T12:53:09;9.40;62.00
42147;DHT22;27815;43.410;11.852;2024-01-10T12:57:12;9.40;61.90
42147;DHT22;27815;43.410;11.852;2024-01-10T13:01:15;9.40;61.40
42147;DHT22;27815;43.410;11.852;2024-01-10T13:05:19;9.30;61.40
42147;DHT22;27815;43.410;11.852;2024-01-10T13:09:22;9.40;61.30
42147;DHT22;27815;43.410;11.852;2024-01-10T13:13:25;9.30;60.70
42147;DHT22;27815;43.410;11.852;2024-01-10T13:17:28;9.30;60.70
42147;DHT22;27815;43.410;11.852;2024-01-10T13:21:32;9.30;60.90
42147;DHT22;27815;43.410;11.852;2024-01-10T13:25:36;9.40;61.10
42147;DHT22;27815;43.410;11.852;2024-01-10T13:29:39;9.40;61.20
42147;DHT22;27815;43.410;11.852;2024-01-10T13:33:43;9.40;61.20
42147;DHT22;27815;43.410;11.852;2024-01-10T13:37:49;9.40;61.10
42147;DHT22;27815;43.410;11.852;2024-01-10T13:41:52;9.30;61.00
42147;DHT22;27815;43.410;11.852;2024-01-10T13:45:56;9.30;61.20
42147;DHT22;27815;43.410;11.852;2024-01-10T13:49:59;9.20;61.20
42147;DHT22;27815;43.410;11.852;2024-01-10T13:54:03;9.20;61.30
42147;DHT22;27815;43.410;11.852;2024-01-10T13:58:06;9.20;61.30
42147;DHT22;27815;43.410;11.852;2024-01-10T14:02:10;9.20;61.30
42147;DHT22;27815;43.410;11.852;2024-01-10T14:06:13;9.10;61.00
42147;DHT22;27815;43.410;11.852;2024-01-10T14:10:16;9.10;61.20
42147;DHT22;27815;43.410;11.852;2024-01-10T14:14:19;9.10;61.30
42147;DHT22;27815;43.410;11.852;2024-01-10T14:18:28;9.00;61.10
42147;DHT22;27815;43.410;11.852;2024-01-10T14:22:31;9.00;61.40
42147;DHT22;27815;43.410;11.852;2024-01-10T14:26:36;8.90;61.30
42147;DHT22;27815;43.410;11.852;2024-01-10T14:30:40;8.90;61.40
42147;DHT22;27815;43.410;11.852;2024-01-10T14:34:43;8.80;61.50
42147;DHT22;27815;43.410;11.852;2024-01-10T14:38:47;8.70;61.60
42147;DHT22;27815;43.410;11.852;2024-01-10T14:42:51;8.70;61.70
42147;DHT22;27815;43.410;11.852;2024-01-10T14:46:54;8.60;61.80
42147;DHT22;27815;43.410;11.852;2024-01-10T14:51:11;8.60;61.80
42147;DHT22;27815;43.410;11.852;2024-01-10T14:55:15;8.60;62.00
42147;DHT22;27815;43.410;11.852;2024-01-10T14:59:21;8.60;62.00
42147;DHT22;27815;43.410;11.852;2024-01-10T15:03:41;8.50;62.20
42147;DHT22;27815;43.410;11.852;2024-01-10T15:07:45;8.50;62.30
42147;DHT22;27815;43.410;11.852;2024-01-10T15:11:48;8.40;62.40
42147;DHT22;27815;43.410;11.852;2024-01-10T15:15:51;8.40;62.50
42147;DHT22;27815;43.410;11.852;2024-01-10T15:19:54;8.30;62.60
42147;DHT22;27815;43.410;11.852;2024-01-10T15:23:57;8.20;62.80
42147;DHT22;27815;43.410;11.852;2024-01-10T15:28:01;8.20;62.90
42147;DHT22;27815;43.410;11.852;2024-01-10T15:32:04;8.10;63.00
42147;DHT22;27815;43.410;11.852;2024-01-10T15:36:10;8.10;63.10
42147;DHT22;27815;43.410;11.852;2024-01-10T15:40:13;8.00;63.20
42147;DHT22;27815;43.410;11.852;2024-01-10T15:44:19;7.90;63.40
42147;DHT22;27815;43.410;11.852;2024-01-10T15:48:24;7.90;63.60
42147;DHT22;27815;43.410;11.852;2024-01-10T15:52:30;7.80;63.70
42147;DHT22;27815;43.410;11.852;2024-01-10T15:56:33;7.70;63.90
42147;DHT22;27815;43.410;11.852;2024-01-10T16:00:43;7.60;64.10
42147;DHT22;27815;43.410;11.852;2024-01-10T16:04:46;7.50;64.20
42147;DHT22;27815;43.410;11.852;2024-01-10T16:08:49;7.40;64.40
42147;DHT22;27815;43.410;11.852;2024-01-10T16:12:54;7.40;64.60
42147;DHT22;27815;43.410;11.852;2024-01-10T16:16:59;7.30;64.70
42147;DHT22;27815;43.410;11.852;2024-01-10T16:21:02;7.20;64.70
42147;DHT22;27815;43.410;11.852;2024-01-10T16:25:05;7.20;65.00
42147;DHT22;27815;43.410;11.852;2024-01-10T16:29:08;7.20;65.10
42147;DHT22;27815;43.410;11.852;2024-01-10T16:33:11;7.20;65.20
42147;DHT22;27815;43.410;11.852;2024-01-10T16:37:17;7.20;65.30
42147;DHT22;27815;43.410;11.852;2024-01-10T16:41:20;7.20;65.40
42147;DHT22;27815;43.410;11.852;2024-01-10T16:45:23;7.10;65.50
42147;DHT22;27815;43.410;11.852;2024-01-10T16:49:26;7.20;65.70
42147;DHT22;27815;43.410;11.852;2024-01-10T16:53:29;7.10;65.70
42147;DHT22;27815;43.410;11.852;2024-01-10T16:57:32;7.10;65.80
42147;DHT22;27815;43.410;11.852;2024-01-10T17:01:35;7.10;65.80
42147;DHT22;27815;43.410;11.852;2024-01-10T17:05:39;7.10;65.90
42147;DHT22;27815;43.410;11.852;2024-01-10T17:09:46;7.00;66.00
42147;DHT22;27815;43.410;11.852;2024-01-10T17:13:57;7.00;66.10
42147;DHT22;27815;43.410;11.852;2024-01-10T17:18:00;7.00;66.10
42147;DHT22;27815;43.410;11.852;2024-01-10T17:22:10;7.00;66.20
42147;DHT22;27815;43.410;11.852;2024-01-10T17:26:13;7.00;66.40
42147;DHT22;27815;43.410;11.852;2024-01-10T17:30:18;6.90;66.50
42147;DHT22;27815;43.410;11.852;2024-01-10T17:34:35;6.90;66.50
42147;DHT22;27815;43.410;11.852;2024-01-10T17:38:40;6.80;66.70
42147;DHT22;27815;43.410;11.852;2024-01-10T17:42:43;6.90;66.70
42147;DHT22;27815;43.410;11.852;2024-01-10T17:46:49;6.80;66.80
42147;DHT22;27815;43.410;11.852;2024-01-10T17:50:54;6.90;66.80
42147;DHT22;27815;43.410;11.852;2024-01-10T17:54:57;6.90;66.90
42147;DHT22;27815;43.410;11.852;2024-01-10T17:59:00;7.00;66.90
42147;DHT22;27815;43.410;11.852;2024-01-10T18:03:04;7.00;66.90
42147;DHT22;27815;43.410;11.852;2024-01-10T18:07:07;7.00;66.90
42147;DHT22;27815;43.410;11.852;2024-01-10T18:11:14;7.00;66.70
42147;DHT22;27815;43.410;11.852;2024-01-10T18:15:25;7.00;66.70
42147;DHT22;27815;43.410;11.852;2024-01-10T18:19:31;7.00;66.60
42147;DHT22;27815;43.410;11.852;2024-01-10T18:23:36;7.00;66.70
42147;DHT22;27815;43.410;11.852;2024-01-10T18:28:20;6.90;66.70
42147;DHT22;27815;43.410;11.852;2024-01-10T18:32:26;6.90;66.70
42147;DHT22;27815;43.410;11.852;2024-01-10T18:36:40;6.80;66.80
42147;DHT22;27815;43.410;11.852;2024-01-10T18:41:34;6.70;67.00
42147;DHT22;27815;43.410;11.852;2024-01-10T18:46:49;6.70;67.10
42147;DHT22;27815;43.410;11.852;2024-01-10T18:52:10;6.80;67.20
42147;DHT22;27815;43.410;11.852;2024-01-10T18:56:26;6.70;67.20
42147;DHT22;27815;43.410;11.852;2024-01-10T19:00:30;6.80;67.30
42147;DHT22;27815;43.410;11.852;2024-01-10T19:04:35;6.80;67.30
42147;DHT22;27815;43.410;11.852;2024-01-10T19:08:43;6.80;67.20
42147;DHT22;27815;43.410;11.852;2024-01-10T19:12:49;6.80;67.30
42147;DHT22;27815;43.410;11.852;2024-01-10T19:16:52;6.80;67.10
42147;DHT22;27815;43.410;11.852;2024-01-10T19:21:01;6.80;67.10
42147;DHT22;27815;43.410;11.852;2024-01-10T19:25:26;6.80;67.10
42147;DHT22;27815;43.410;11.852;2024-01-10T19:29:29;6.80;67.20
42147;DHT22;27815;43.410;11.852;2024-01-10T19:33:33;6.80;67.20
42147;DHT22;27815;43.410;11.852;2024-01-10T19:37:46;6.90;67.10
42147;DHT22;27815;43.410;11.852;2024-01-10T19:42:13;6.90;67.10
42147;DHT22;27815;43.410;11.852;2024-01-10T19:46:19;6.90;67.10
42147;DHT22;27815;43.410;11.852;2024-01-10T19:50:27;6.90;67.10
42147;DHT22;27815;43.410;11.852;2024-01-10T19:54:34;6.90;67.00
42147;DHT22;27815;43.410;11.852;2024-01-10T19:58:45;6.90;67.00
42147;DHT22;27815;43.410;11.852;2024-01-10T20:02:50;6.90;67.10
42147;DHT22;27815;43.410;11.852;2024-01-10T20:06:55;6.90;67.00
42147;DHT22;27815;43.410;11.852;2024-01-10T20:10:59;6.90;67.00
42147;DHT22;27815;43.410;11.852;2024-01-10T20:15:03;6.90;67.00
42147;DHT22;27815;43.410;11.852;2024-01-10T20:19:10;6.90;67.00
42147;DHT22;27815;43.410;11.852;2024-01-10T20:23:15;7.00;67.00
42147;DHT22;27815;43.410;11.852;2024-01-10T20:27:19;6.90;67.00
42147;DHT22;27815;43.410;11.852;2024-01-10T20:31:22;7.00;67.00
42147;DHT22;27815;43.410;11.852;2024-01-10T20:35:26;7.00;67.00
42147;DHT22;27815;43.410;11.852;2024-01-10T20:39:29;6.90;67.00
42147;DHT22;27815;43.410;11.852;2024-01-10T20:43:32;6.90;67.00
42147;DHT22;27815;43.410;11.852;2024-01-10T20:47:43;6.90;67.10
42147;DHT22;27815;43.410;11.852;2024-01-10T20:51:48;6.90;67.10
42147;DHT22;27815;43.410;11.852;2024-01-10T20:55:52;6.90;67.10
42147;DHT22;27815;43.410;11.852;2024-01-10T20:59:56;6.90;67.20
42147;DHT22;27815;43.410;11.852;2024-01-10T21:04:01;6.90;67.20
42147;DHT22;27815;43.410;11.852;2024-01-10T21:08:05;6.90;67.30
42147;DHT22;27815;43.410;11.852;2024-01-10T21:12:10;6.90;67.20
42147;DHT22;27815;43.410;11.852;2024-01-10T21:16:18;6.90;67.20
42147;DHT22;27815;43.410;11.852;2024-01-10T21:20:23;6.90;67.30
42147;DHT22;27815;43.410;11.852;2024-01-10T21:24:26;6.90;67.30
42147;DHT22;27815;43.410;11.852;2024-01-10T21:28:32;7.00;67.40
42147;DHT22;27815;43.410;11.852;2024-01-10T21:32:35;7.00;67.30
42147;DHT22;27815;43.410;11.852;2024-01-10T21:36:41;7.00;67.30
42147;DHT22;27815;43.410;11.852;2024-01-10T21:40:53;7.00;67.30
42147;DHT22;27815;43.410;11.852;2024-01-10T21:44:58;7.00;67.20
42147;DHT22;27815;43.410;11.852;2024-01-10T21:49:01;7.10;67.30
42147;DHT22;27815;43.410;11.852;2024-01-10T21:53:05;7.10;67.30
42147;DHT22;27815;43.410;11.852;2024-01-10T21:57:08;7.10;67.20
42147;DHT22;27815;43.410;11.852;2024-01-10T22:01:11;7.10;67.20
42147;DHT22;27815;43.410;11.852;2024-01-10T22:05:14;7.10;67.20
42147;DHT22;27815;43.410;11.852;2024-01-10T22:09:17;7.10;67.10
42147;DHT22;27815;43.410;11.852;2024-01-10T22:13:20;7.10;67.10
42147;DHT22;27815;43.410;11.852;2024-01-10T22:17:23;7.10;67.20
42147;DHT22;27815;43.410;11.852;2024-01-10T22:21:30;7.10;67.20
42147;DHT22;27815;43.410;11.852;2024-01-10T22:25:34;7.10;67.20
42147;DHT22;27815;43.410;11.852;2024-01-10T22:29:39;7.10;67.30
42147;DHT22;27815;43.410;11.852;2024-01-10T22:33:43;7.10;67.30
42147;DHT22;27815;43.410;11.852;2024-01-10T22:37:52;7.10;67.30
42147;DHT22;27815;43.410;11.852;2024-01-10T22:41:58;7.10;67.30
42147;DHT22;27815;43.410;11.852;2024-01-10T22:46:22;7.10;67.30
42147;DHT22;27815;43.410;11.852;2024-01-10T22:50:25;7.10;67.40
42147;DHT22;27815;43.410;11.852;2024-01-10T22:54:29;7.10;67.40
42147;DHT22;27815;43.410;11.852;2024-01-10T22:58:34;7.10;67.40
42147;DHT22;27815;43.410;11.852;2024-01-10T23:02:38;7.10;67.40
42147;DHT22;27815;43.410;11.852;2024-01-10T23:06:48;7.10;67.50
42147;DHT22;27815;43.410;11.852;2024-01-10T23:10:54;7.10;67.50
42147;DHT22;27815;43.410;11.852;2024-01-10T23:15:00;7.10;67.60
42147;DHT22;27815;43.410;11.852;2024-01-10T23:19:08;7.20;67.60
42147;DHT22;27815;43.410;11.852;2024-01-10T23:23:12;7.20;67.50
42147;DHT22;27815;43.410;11.852;2024-01-10T23:27:18;7.20;67.40
42147;DHT22;27815;43.410;11.852;2024-01-10T23:31:21;7.30;67.40
42147;DHT22;27815;43.410;11.852;2024-01-10T23:35:24;7.30;67.30
42147;DHT22;27815;43.410;11.852;2024-01-10T23:39:47;7.30;67.30
42147;DHT22;27815;43.410;11.852;2024-01-10T23:43:50;7.30;67.20
42147;DHT22;27815;43.410;11.852;2024-01-10T23:47:53;7.30;67.20
42147;DHT22;27815;43.410;11.852;2024-01-10T23:51:59;7.30;67.20
42147;DHT22;27815;43.410;11.852;2024-01-10T23:56:05;7.30;67.10
